createdAt,value
2018-09-02T00:01:18.505Z,17.40
2018-09-02T00:03:46.766Z,17.40
2018-09-02T00:06:15.041Z,17.40
2018-09-02T00:08:43.206Z,17.40
2018-09-02T00:11:11.446Z,17.40
2018-09-02T00:13:39.654Z,17.40
2018-09-02T00:16:07.919Z,17.40
2018-09-02T00:18:36.156Z,17.40
2018-09-02T00:21:05.128Z,17.40
2018-09-02T00:23:33.420Z,17.40
2018-09-02T00:26:02.406Z,17.40
2018-09-02T00:28:30.623Z,17.40
2018-09-02T00:30:58.860Z,17.40
2018-09-02T00:33:27.873Z,17.40
2018-09-02T00:35:56.886Z,17.30
2018-09-02T00:38:25.109Z,17.30
2018-09-02T00:40:53.311Z,17.30
2018-09-02T00:43:22.341Z,17.30
2018-09-02T00:45:50.586Z,17.30
2018-09-02T00:48:19.564Z,17.30
2018-09-02T00:50:48.583Z,17.30
2018-09-02T00:53:17.573Z,17.30
2018-09-02T00:55:46.588Z,17.30
2018-09-02T00:58:14.825Z,17.30
2018-09-02T01:00:43.039Z,17.30
2018-09-02T01:03:11.307Z,17.30
2018-09-02T01:05:40.317Z,17.30
2018-09-02T01:08:08.529Z,17.30
2018-09-02T01:10:36.787Z,17.30
2018-09-02T01:13:05.030Z,17.30
2018-09-02T01:15:33.257Z,17.30
2018-09-02T01:18:01.525Z,17.30
2018-09-02T01:20:29.723Z,17.30
2018-09-02T01:22:57.953Z,17.30
2018-09-02T01:25:26.142Z,17.30
2018-09-02T01:27:54.387Z,17.30
2018-09-02T01:30:22.639Z,17.30
2018-09-02T01:32:50.897Z,17.30
2018-09-02T01:35:19.101Z,17.30
2018-09-02T01:37:48.102Z,17.30
2018-09-02T01:40:16.351Z,17.30
2018-09-02T01:42:44.625Z,17.30
2018-09-02T01:45:12.857Z,17.30
2018-09-02T01:47:41.069Z,17.30
2018-09-02T01:50:09.342Z,17.20
2018-09-02T01:52:37.579Z,17.20
2018-09-02T01:55:05.832Z,17.20
2018-09-02T01:57:34.836Z,17.10
2018-09-02T02:00:03.056Z,17.10
2018-09-02T02:02:31.251Z,17.10
2018-09-02T02:04:59.470Z,17.10
2018-09-02T02:07:27.730Z,17.10
2018-09-02T02:09:56.768Z,17.10
2018-09-02T02:12:25.647Z,17.10
2018-09-02T02:14:53.853Z,17.10
2018-09-02T02:17:22.074Z,17.10
2018-09-02T02:19:51.050Z,17.10
2018-09-02T02:22:20.074Z,17.10
2018-09-02T02:24:48.316Z,17.10
2018-09-02T02:27:16.530Z,17.10
2018-09-02T02:29:44.784Z,17.10
2018-09-02T02:32:13.760Z,17.00
2018-09-02T02:34:42.784Z,17.00
2018-09-02T02:37:11.812Z,17.00
2018-09-02T02:39:40.008Z,17.00
2018-09-02T02:42:08.306Z,16.80
2018-09-02T02:44:36.543Z,16.90
2018-09-02T02:47:04.735Z,16.90
2018-09-02T02:49:32.957Z,16.90
2018-09-02T02:52:01.208Z,16.90
2018-09-02T02:54:29.425Z,16.90
2018-09-02T02:56:57.675Z,16.90
2018-09-02T02:59:26.710Z,16.90
2018-09-02T03:01:54.964Z,16.90
2018-09-02T03:04:23.172Z,16.90
2018-09-02T03:06:51.426Z,16.90
2018-09-02T03:09:19.651Z,16.90
2018-09-02T03:11:47.852Z,16.90
2018-09-02T03:14:16.856Z,16.90
2018-09-02T03:16:45.102Z,16.90
2018-09-02T03:19:13.302Z,16.90
2018-09-02T03:21:42.288Z,16.90
2018-09-02T03:24:11.267Z,17.00
2018-09-02T03:26:39.526Z,17.00
2018-09-02T03:29:07.722Z,17.00
2018-09-02T03:31:36.763Z,17.00
2018-09-02T03:34:05.010Z,17.00
2018-09-02T03:36:33.210Z,17.00
2018-09-02T03:39:01.486Z,17.00
2018-09-02T03:41:29.761Z,17.00
2018-09-02T03:43:58.730Z,17.00
2018-09-02T03:46:27.729Z,17.00
2018-09-02T03:48:56.712Z,16.90
2018-09-02T03:51:25.705Z,16.90
2018-09-02T03:53:54.696Z,17.00
2018-09-02T03:56:22.912Z,17.00
2018-09-02T03:58:51.124Z,17.00
2018-09-02T04:01:19.401Z,17.00
2018-09-02T04:03:47.707Z,17.00
2018-09-02T04:06:15.921Z,16.90
2018-09-02T04:08:44.179Z,16.90
2018-09-02T04:11:13.269Z,16.90
2018-09-02T04:13:41.429Z,16.90
2018-09-02T04:16:09.696Z,16.90
2018-09-02T04:18:37.896Z,16.90
2018-09-02T04:21:06.131Z,16.90
2018-09-02T04:23:34.371Z,16.80
2018-09-02T04:26:02.595Z,16.80
2018-09-02T04:28:30.847Z,16.80
2018-09-02T04:30:59.079Z,16.80
2018-09-02T04:33:27.389Z,16.80
2018-09-02T04:35:55.595Z,16.80
2018-09-02T04:38:23.846Z,16.80
2018-09-02T04:40:52.109Z,16.80
2018-09-02T04:43:20.311Z,16.80
2018-09-02T04:45:48.577Z,16.80
2018-09-02T04:48:16.771Z,16.80
2018-09-02T04:50:44.996Z,16.90
2018-09-02T04:53:13.207Z,16.90
2018-09-02T04:55:41.451Z,16.90
2018-09-02T04:58:09.667Z,16.90
2018-09-02T05:00:37.873Z,16.90
2018-09-02T05:03:06.093Z,16.90
2018-09-02T05:05:34.312Z,16.90
2018-09-02T05:08:02.582Z,16.80
2018-09-02T05:10:31.590Z,16.70
2018-09-02T05:12:59.862Z,16.70
2018-09-02T05:15:28.052Z,16.70
2018-09-02T05:17:57.045Z,16.70
2018-09-02T05:20:25.250Z,16.60
2018-09-02T05:22:53.472Z,16.60
2018-09-02T05:25:21.688Z,16.50
2018-09-02T05:27:50.684Z,16.60
2018-09-02T05:30:19.690Z,16.50
2018-09-02T05:32:47.904Z,16.50
2018-09-02T05:35:16.108Z,16.50
2018-09-02T05:37:45.150Z,16.50
2018-09-02T05:40:13.372Z,16.50
2018-09-02T05:42:41.639Z,16.50
2018-09-02T05:45:09.881Z,16.50
2018-09-02T05:47:38.139Z,16.50
2018-09-02T05:50:06.390Z,16.50
2018-09-02T05:52:34.649Z,16.50
2018-09-02T05:55:02.847Z,16.50
2018-09-02T05:57:31.872Z,16.60
2018-09-02T06:00:00.083Z,16.60
2018-09-02T06:02:28.341Z,16.60
2018-09-02T06:04:56.539Z,16.60
2018-09-02T06:07:24.752Z,16.60
2018-09-02T06:09:53.762Z,16.60
2018-09-02T06:12:21.980Z,16.60
2018-09-02T06:14:50.202Z,16.60
2018-09-02T06:17:19.253Z,16.60
2018-09-02T06:19:48.200Z,16.60
2018-09-02T06:22:17.210Z,16.60
2018-09-02T06:24:45.540Z,16.60
2018-09-02T06:27:13.746Z,16.60
2018-09-02T06:29:41.988Z,16.60
2018-09-02T06:32:10.207Z,16.60
2018-09-02T06:34:38.454Z,16.60
2018-09-02T06:37:06.711Z,16.60
2018-09-02T06:39:34.968Z,16.50
2018-09-02T06:42:03.212Z,16.60
2018-09-02T06:44:31.416Z,16.50
2018-09-02T06:46:59.671Z,16.50
2018-09-02T06:49:27.884Z,16.50
2018-09-02T06:51:56.144Z,16.60
2018-09-02T06:54:24.412Z,16.60
2018-09-02T06:56:52.659Z,16.60
2018-09-02T06:59:21.732Z,16.70
2018-09-02T07:01:49.983Z,16.70
2018-09-02T07:04:18.985Z,16.80
2018-09-02T07:06:47.256Z,16.80
2018-09-02T07:09:15.461Z,16.80
2018-09-02T07:11:44.498Z,16.90
2018-09-02T07:14:12.788Z,16.90
2018-09-02T07:16:41.785Z,16.90
2018-09-02T07:19:09.986Z,16.80
2018-09-02T07:21:38.209Z,16.90
2018-09-02T07:24:06.455Z,16.90
2018-09-02T07:26:34.695Z,16.90
2018-09-02T07:29:03.697Z,16.90
2018-09-02T07:31:32.087Z,16.90
2018-09-02T07:34:00.243Z,16.90
2018-09-02T07:36:28.501Z,16.90
2018-09-02T07:38:56.753Z,16.90
2018-09-02T07:41:25.737Z,17.00
2018-09-02T07:43:54.727Z,17.00
2018-09-02T07:46:22.986Z,17.00
2018-09-02T07:48:51.177Z,17.00
2018-09-02T07:51:20.209Z,17.00
2018-09-02T07:53:48.468Z,17.00
2018-09-02T07:56:17.446Z,17.10
2018-09-02T07:58:46.455Z,17.10
2018-09-02T08:01:15.439Z,17.10
2018-09-02T08:03:44.469Z,17.10
2018-09-02T08:06:12.677Z,17.10
2018-09-02T08:08:40.934Z,17.20
2018-09-02T08:11:09.208Z,17.20
2018-09-02T08:13:37.439Z,17.20
2018-09-02T08:16:06.464Z,17.30
2018-09-02T08:18:34.711Z,17.30
2018-09-02T08:21:03.690Z,17.30
2018-09-02T08:23:32.667Z,17.30
2018-09-02T08:26:00.880Z,17.30
2018-09-02T08:28:29.109Z,17.30
2018-09-02T08:30:58.124Z,17.40
2018-09-02T08:33:26.389Z,17.40
2018-09-02T08:35:54.648Z,17.40
2018-09-02T08:38:22.888Z,17.40
2018-09-02T08:40:51.132Z,17.40
2018-09-02T08:43:19.356Z,17.50
2018-09-02T08:45:47.574Z,17.50
2018-09-02T08:48:15.814Z,17.50
2018-09-02T08:50:44.061Z,17.50
2018-09-02T08:53:13.043Z,17.50
2018-09-02T08:55:42.080Z,17.50
2018-09-02T08:58:10.318Z,17.50
2018-09-02T09:00:39.298Z,17.50
2018-09-02T09:03:08.406Z,17.50
2018-09-02T09:05:36.653Z,17.60
2018-09-02T09:08:05.020Z,17.60
2018-09-02T09:10:33.168Z,17.60
2018-09-02T09:13:01.456Z,17.70
2018-09-02T09:15:29.664Z,17.70
2018-09-02T09:17:57.952Z,17.70
2018-09-02T09:20:26.208Z,17.70
2018-09-02T09:22:54.407Z,17.70
2018-09-02T09:25:22.618Z,17.70
2018-09-02T09:27:50.843Z,17.80
2018-09-02T09:30:19.104Z,17.80
2018-09-02T09:32:47.369Z,17.90
2018-09-02T09:35:15.613Z,17.90
2018-09-02T09:37:44.614Z,17.90
2018-09-02T09:40:12.881Z,17.90
2018-09-02T09:42:41.853Z,17.90
2018-09-02T09:45:10.119Z,17.90
2018-09-02T09:47:38.360Z,17.90
2018-09-02T09:50:06.568Z,17.90
2018-09-02T09:52:34.806Z,18.00
2018-09-02T09:55:03.048Z,18.10
2018-09-02T09:57:32.076Z,18.20
2018-09-02T10:00:00.325Z,18.20
2018-09-02T10:02:29.377Z,18.30
2018-09-02T10:04:57.637Z,18.20
2018-09-02T10:07:25.855Z,18.30
2018-09-02T10:09:54.188Z,18.20
2018-09-02T10:12:22.345Z,18.30
2018-09-02T10:14:50.541Z,18.30
2018-09-02T10:17:18.828Z,18.30
2018-09-02T10:19:47.803Z,18.30
2018-09-02T10:22:16.077Z,18.20
2018-09-02T10:24:44.325Z,18.30
2018-09-02T10:27:13.402Z,18.30
2018-09-02T10:29:41.615Z,18.20
2018-09-02T10:32:09.825Z,18.20
2018-09-02T10:34:38.078Z,18.30
2018-09-02T10:37:06.309Z,18.30
2018-09-02T10:39:34.583Z,18.30
2018-09-02T10:42:03.764Z,18.30
2018-09-02T10:44:33.544Z,18.40
2018-09-02T10:47:01.816Z,18.30
2018-09-02T10:49:30.067Z,18.40
2018-09-02T10:51:58.299Z,18.40
2018-09-02T10:54:27.321Z,18.50
2018-09-02T10:56:55.581Z,18.40
2018-09-02T10:59:23.845Z,18.50
2018-09-02T11:01:52.096Z,18.50
2018-09-02T11:04:20.382Z,18.50
2018-09-02T11:06:48.600Z,18.50
2018-09-02T11:09:16.917Z,18.50
2018-09-02T11:11:45.132Z,18.50
2018-09-02T11:14:13.393Z,18.50
2018-09-02T11:16:41.613Z,18.50
2018-09-02T11:19:09.828Z,18.50
2018-09-02T11:21:38.057Z,18.60
2018-09-02T11:24:06.266Z,18.60
2018-09-02T11:26:34.500Z,18.60
2018-09-02T11:29:02.743Z,18.60
2018-09-02T11:31:31.001Z,18.60
2018-09-02T11:33:59.285Z,18.70
2018-09-02T11:36:28.253Z,18.70
2018-09-02T11:38:57.242Z,18.70
2018-09-02T11:41:26.545Z,18.70
2018-09-02T11:43:54.794Z,18.70
2018-09-02T11:46:23.044Z,18.70
2018-09-02T11:48:51.321Z,18.70
2018-09-02T11:51:19.524Z,18.80
2018-09-02T11:53:47.766Z,18.70
2018-09-02T11:56:15.977Z,18.80
2018-09-02T11:58:44.210Z,18.80
2018-09-02T12:01:13.054Z,18.80
2018-09-02T12:03:41.260Z,18.80
2018-09-02T12:06:09.504Z,18.80
2018-09-02T12:08:37.731Z,18.80
2018-09-02T12:11:05.939Z,18.80
2018-09-02T12:13:34.267Z,18.70
2018-09-02T12:16:03.057Z,18.70
2018-09-02T12:18:33.030Z,18.70
2018-09-02T12:21:01.246Z,18.70
2018-09-02T12:23:30.286Z,18.70
2018-09-02T12:25:58.496Z,18.70
2018-09-02T12:28:26.738Z,18.70
2018-09-02T12:30:54.956Z,18.70
2018-09-02T12:33:23.951Z,18.70
2018-09-02T12:35:53.277Z,18.70
2018-09-02T12:38:22.274Z,18.70
2018-09-02T12:40:50.522Z,18.70
2018-09-02T12:43:18.741Z,18.70
2018-09-02T12:45:47.016Z,18.70
2018-09-02T12:48:15.318Z,18.70
2018-09-02T12:50:43.449Z,18.70
2018-09-02T12:53:11.673Z,18.70
2018-09-02T12:55:39.923Z,18.70
2018-09-02T12:58:08.941Z,18.80
2018-09-02T13:00:37.905Z,18.80
2018-09-02T13:03:06.172Z,18.80
2018-09-02T13:05:34.451Z,18.80
2018-09-02T13:08:02.728Z,18.80
2018-09-02T13:10:31.693Z,18.80
2018-09-02T13:13:00.744Z,18.90
2018-09-02T13:15:28.966Z,18.80
2018-09-02T13:17:57.181Z,18.90
2018-09-02T13:20:25.427Z,18.90
2018-09-02T13:22:54.436Z,18.80
2018-09-02T13:25:23.410Z,18.80
2018-09-02T13:27:52.440Z,18.80
2018-09-02T13:30:20.660Z,18.80
2018-09-02T13:32:48.892Z,18.80
2018-09-02T13:35:17.099Z,18.80
2018-09-02T13:37:45.375Z,18.90
2018-09-02T13:40:13.575Z,18.90
2018-09-02T13:42:42.171Z,18.90
2018-09-02T13:45:10.367Z,18.80
2018-09-02T13:47:38.644Z,18.90
2018-09-02T13:50:06.884Z,18.90
2018-09-02T13:52:35.158Z,18.90
2018-09-02T13:55:03.367Z,18.90
2018-09-02T13:57:31.648Z,18.90
2018-09-02T13:59:59.852Z,19.00
2018-09-02T14:02:28.092Z,19.00
2018-09-02T14:04:56.345Z,19.00
2018-09-02T14:07:24.573Z,19.10
2018-09-02T14:09:52.781Z,19.00
2018-09-02T14:12:21.051Z,19.00
2018-09-02T14:14:49.257Z,19.10
2018-09-02T14:17:18.310Z,19.10
2018-09-02T14:19:47.291Z,19.00
2018-09-02T14:22:15.522Z,19.00
2018-09-02T14:24:43.810Z,19.10
2018-09-02T14:27:12.007Z,19.00
2018-09-02T14:29:40.227Z,19.00
2018-09-02T14:32:08.449Z,19.00
2018-09-02T14:34:36.704Z,19.00
2018-09-02T14:37:04.964Z,19.00
2018-09-02T14:39:33.223Z,19.00
2018-09-02T14:42:01.474Z,19.00
2018-09-02T14:44:29.693Z,19.00
2018-09-02T14:46:57.941Z,18.90
2018-09-02T14:49:26.993Z,18.90
2018-09-02T14:51:56.568Z,18.90
2018-09-02T14:54:24.771Z,18.90
2018-09-02T14:56:53.812Z,18.90
2018-09-02T14:59:22.353Z,18.90
2018-09-02T15:01:50.540Z,18.90
2018-09-02T15:04:18.811Z,19.00
2018-09-02T15:06:47.824Z,19.00
2018-09-02T15:09:16.052Z,19.00
2018-09-02T15:11:44.296Z,19.00
2018-09-02T15:14:12.527Z,19.00
2018-09-02T15:16:41.529Z,19.00
2018-09-02T15:19:10.561Z,18.90
2018-09-02T15:21:38.770Z,18.90
2018-09-02T15:24:06.990Z,19.00
2018-09-02T15:26:35.247Z,19.00
2018-09-02T15:29:04.236Z,19.10
2018-09-02T15:31:32.444Z,19.00
2018-09-02T15:34:00.732Z,19.10
2018-09-02T15:36:28.945Z,19.10
2018-09-02T15:38:57.191Z,19.10
2018-09-02T15:41:25.387Z,19.10
2018-09-02T15:43:53.627Z,19.20
2018-09-02T15:46:21.880Z,19.20
2018-09-02T15:48:50.867Z,19.20
2018-09-02T15:51:19.847Z,19.20
2018-09-02T15:53:48.083Z,19.20
2018-09-02T15:56:17.167Z,19.30
2018-09-02T15:58:45.389Z,19.30
2018-09-02T16:01:13.603Z,19.30
2018-09-02T16:03:41.837Z,19.30
2018-09-02T16:06:10.056Z,19.30
2018-09-02T16:08:38.307Z,19.30
2018-09-02T16:11:06.498Z,19.30
2018-09-02T16:13:34.784Z,19.40
2018-09-02T16:16:03.039Z,19.40
2018-09-02T16:18:32.071Z,19.40
2018-09-02T16:21:00.339Z,19.40
2018-09-02T16:23:29.322Z,19.50
2018-09-02T16:25:58.315Z,19.50
2018-09-02T16:28:26.540Z,19.50
2018-09-02T16:30:54.768Z,19.50
2018-09-02T16:33:22.990Z,19.50
2018-09-02T16:35:51.204Z,19.50
2018-09-02T16:38:20.196Z,19.50
2018-09-02T16:40:49.228Z,19.40
2018-09-02T16:43:17.436Z,19.40
2018-09-02T16:45:45.664Z,19.40
2018-09-02T16:48:13.935Z,19.40
2018-09-02T16:50:42.902Z,19.40
2018-09-02T16:53:11.174Z,19.40
2018-09-02T16:55:39.365Z,19.40
2018-09-02T16:58:07.585Z,19.30
2018-09-02T17:00:35.843Z,19.30
2018-09-02T17:03:04.061Z,19.20
2018-09-02T17:05:32.268Z,19.20
2018-09-02T17:08:01.303Z,19.20
2018-09-02T17:10:29.509Z,19.20
2018-09-02T17:12:57.847Z,19.20
2018-09-02T17:15:25.958Z,19.20
2018-09-02T17:17:54.269Z,19.20
2018-09-02T17:20:22.435Z,19.30
2018-09-02T17:22:50.665Z,19.30
2018-09-02T17:25:18.948Z,19.30
2018-09-02T17:27:47.170Z,19.30
2018-09-02T17:30:16.157Z,19.30
2018-09-02T17:32:44.416Z,19.30
2018-09-02T17:35:12.632Z,19.30
2018-09-02T17:37:41.617Z,19.40
2018-09-02T17:40:10.900Z,19.40
2018-09-02T17:42:39.146Z,19.30
2018-09-02T17:45:07.398Z,19.30
2018-09-02T17:47:37.231Z,19.30
2018-09-02T17:50:05.451Z,19.20
2018-09-02T17:52:34.459Z,19.10
2018-09-02T17:55:03.436Z,19.20
2018-09-02T17:57:31.707Z,19.10
2018-09-02T17:59:59.920Z,19.20
2018-09-02T18:02:28.249Z,19.20
2018-09-02T18:04:56.423Z,19.20
2018-09-02T18:07:24.716Z,19.10
2018-09-02T18:09:52.933Z,19.10
2018-09-02T18:12:21.155Z,19.20
2018-09-02T18:14:49.419Z,19.20
2018-09-02T18:17:17.713Z,19.20
2018-09-02T18:19:45.931Z,19.20
2018-09-02T18:22:14.230Z,19.20
2018-09-02T18:24:43.161Z,19.10
2018-09-02T18:27:11.400Z,19.00
2018-09-02T18:29:39.673Z,19.00
2018-09-02T18:32:08.242Z,18.90
2018-09-02T18:34:37.267Z,18.70
2018-09-02T18:37:05.524Z,18.70
2018-09-02T18:39:33.813Z,18.70
2018-09-02T18:42:01.965Z,18.60
2018-09-02T18:44:30.193Z,18.60
2018-09-02T18:46:58.489Z,18.60
2018-09-02T18:49:26.700Z,18.60
2018-09-02T18:51:55.012Z,18.70
2018-09-02T18:54:23.321Z,18.70
2018-09-02T18:56:51.561Z,18.70
2018-09-02T18:59:19.834Z,18.70
2018-09-02T19:01:48.059Z,18.60
2018-09-02T19:04:17.097Z,18.50
2018-09-02T19:06:45.331Z,18.50
2018-09-02T19:09:14.392Z,18.50
2018-09-02T19:11:43.386Z,18.50
2018-09-02T19:14:11.646Z,18.40
2018-09-02T19:16:39.873Z,18.50
2018-09-02T19:19:08.872Z,18.50
2018-09-02T19:21:37.914Z,18.50
2018-09-02T19:24:06.153Z,18.40
2018-09-02T19:26:35.254Z,18.50
2018-09-02T19:29:03.571Z,18.50
2018-09-02T19:31:32.589Z,18.50
2018-09-02T19:34:00.866Z,18.50
2018-09-02T19:36:29.115Z,18.50
2018-09-02T19:38:57.363Z,18.50
2018-09-02T19:41:25.633Z,18.50
2018-09-02T19:43:54.160Z,18.40
2018-09-02T19:46:22.449Z,18.50
2018-09-02T19:48:50.684Z,18.40
2018-09-02T19:51:18.951Z,18.40
2018-09-02T19:53:47.146Z,18.40
2018-09-02T19:56:15.369Z,18.40
2018-09-02T19:58:44.346Z,18.30
2018-09-02T20:01:12.589Z,18.30
2018-09-02T20:03:41.775Z,18.30
2018-09-02T20:06:09.969Z,18.30
2018-09-02T20:08:38.219Z,18.30
2018-09-02T20:11:06.482Z,18.20
2018-09-02T20:13:35.556Z,18.20
2018-09-02T20:16:03.844Z,18.20
2018-09-02T20:18:32.120Z,18.20
2018-09-02T20:21:00.321Z,18.10
2018-09-02T20:23:28.596Z,18.10
2018-09-02T20:25:57.586Z,18.00
2018-09-02T20:28:26.608Z,18.00
2018-09-02T20:30:54.895Z,18.00
2018-09-02T20:33:23.183Z,18.00
2018-09-02T20:35:51.389Z,18.00
2018-09-02T20:38:19.609Z,18.00
2018-09-02T20:40:47.879Z,18.00
2018-09-02T20:43:16.167Z,18.00
2018-09-02T20:45:45.081Z,18.00
2018-09-02T20:48:13.331Z,18.00
2018-09-02T20:50:41.601Z,17.90
2018-09-02T20:53:09.854Z,17.90
2018-09-02T20:55:38.839Z,17.90
2018-09-02T20:58:07.881Z,17.90
2018-09-02T21:00:36.143Z,17.90
2018-09-02T21:03:04.357Z,17.90
2018-09-02T21:05:32.605Z,17.90
2018-09-02T21:08:00.869Z,17.90
2018-09-02T21:10:29.145Z,17.90
2018-09-02T21:12:57.421Z,17.90
2018-09-02T21:15:26.411Z,17.90
2018-09-02T21:17:54.674Z,17.90
2018-09-02T21:20:23.643Z,17.90
2018-09-02T21:22:51.860Z,17.80
2018-09-02T21:25:20.124Z,17.80
2018-09-02T21:27:49.147Z,17.80
2018-09-02T21:30:17.396Z,17.80
2018-09-02T21:32:46.372Z,17.80
2018-09-02T21:35:14.633Z,17.80
2018-09-02T21:37:43.281Z,17.80
2018-09-02T21:40:11.494Z,17.80
2018-09-02T21:42:39.708Z,17.80
2018-09-02T21:45:07.933Z,17.80
2018-09-02T21:47:36.188Z,17.70
2018-09-02T21:50:04.398Z,17.70
2018-09-02T21:52:32.610Z,17.70
2018-09-02T21:55:01.594Z,17.70
2018-09-02T21:57:30.570Z,17.60
2018-09-02T21:59:58.834Z,17.60
2018-09-02T22:02:27.041Z,17.60
2018-09-02T22:04:56.070Z,17.50
2018-09-02T22:07:24.279Z,17.50
2018-09-02T22:09:52.489Z,17.50
2018-09-02T22:12:21.475Z,17.40
2018-09-02T22:14:50.463Z,17.40
2018-09-02T22:17:18.693Z,17.40
2018-09-02T22:19:46.889Z,17.40
2018-09-02T22:22:15.160Z,17.30
2018-09-02T22:24:44.138Z,17.30
2018-09-02T22:27:12.430Z,17.30
2018-09-02T22:29:40.644Z,17.30
2018-09-02T22:32:08.909Z,17.20
2018-09-02T22:34:37.113Z,17.20
2018-09-02T22:37:06.140Z,17.20
2018-09-02T22:39:34.401Z,17.20
2018-09-02T22:42:02.647Z,17.20
2018-09-02T22:44:30.915Z,17.20
2018-09-02T22:46:59.116Z,17.20
2018-09-02T22:49:28.122Z,17.20
2018-09-02T22:51:56.365Z,17.20
2018-09-02T22:54:24.576Z,17.20
2018-09-02T22:56:52.833Z,17.20
2018-09-02T22:59:21.880Z,17.20
2018-09-02T23:01:50.128Z,17.20
2018-09-02T23:04:18.372Z,17.20
2018-09-02T23:06:46.634Z,17.20
2018-09-02T23:09:14.915Z,17.20
2018-09-02T23:11:43.166Z,17.20
2018-09-02T23:14:11.366Z,17.20
2018-09-02T23:16:39.689Z,17.30
2018-09-02T23:19:08.689Z,17.20
2018-09-02T23:21:36.914Z,17.20
2018-09-02T23:24:05.131Z,17.20
2018-09-02T23:26:33.341Z,17.20
2018-09-02T23:29:01.931Z,17.20
2018-09-02T23:31:30.159Z,17.20
2018-09-02T23:33:59.133Z,17.10
2018-09-02T23:36:28.141Z,17.10
2018-09-02T23:38:57.133Z,17.10
2018-09-02T23:41:26.154Z,17.10
2018-09-02T23:43:54.398Z,17.10
2018-09-02T23:46:23.367Z,17.20
2018-09-02T23:48:51.597Z,17.10
2018-09-02T23:51:19.803Z,17.20
2018-09-02T23:53:48.093Z,17.20
2018-09-02T23:56:16.323Z,17.20
2018-09-02T23:58:44.523Z,17.20
